Time;durP1;ratioP1;P1;durP2;ratioP2;P2;SDS_P1;SDS_P2;PMS_P1;PMS_P2;Temp;Humidity;BMP_temperature;BMP_pressure;BME280_temperature;BME280_humidity;BME280_pressure;Samples;Min_cycle;Max_cycle;Signal;HPM_P1;HPM_P2
2021/11/10 00:01:44;;;;;;;11.32;2.20;;;6.30;81.30;;;;;;5034975;28;20411;-93
2021/11/10 00:04:10;;;;;;;4.90;2.30;;;6.00;82.40;;;;;;5035410;28;20440;-93
2021/11/10 00:06:36;;;;;;;3.67;2.00;;;5.90;82.80;;;;;;5017458;28;20387;-92
2021/11/10 00:09:05;;;;;;;4.32;1.98;;;5.60;83.40;;;;;;5035190;28;20378;-92
2021/11/10 00:11:31;;;;;;;4.95;1.73;;;5.60;84.30;;;;;;5034928;28;20465;-93
2021/11/10 00:13:57;;;;;;;4.85;2.35;;;5.50;84.70;;;;;;5017553;28;20840;-92
2021/11/10 00:16:23;;;;;;;5.32;2.13;;;5.60;84.20;;;;;;5034581;28;20470;-90
2021/11/10 00:18:51;;;;;;;4.07;1.90;;;5.40;84.70;;;;;;5017301;28;20862;-92
2021/11/10 00:21:18;;;;;;;5.17;2.03;;;5.30;85.30;;;;;;5034512;28;20386;-91
2021/11/10 00:23:44;;;;;;;4.68;2.38;;;5.30;85.40;;;;;;5034876;28;20462;-91
2021/11/10 00:26:09;;;;;;;7.70;2.70;;;5.30;85.10;;;;;;5034443;28;20768;-92
2021/11/10 00:28:35;;;;;;;4.33;2.13;;;5.30;85.30;;;;;;5034512;28;20499;-90
2021/11/10 00:31:01;;;;;;;3.70;1.90;;;5.30;85.60;;;;;;5034746;28;20434;-91
2021/11/10 00:33:26;;;;;;;6.68;2.22;;;5.30;85.20;;;;;;5034386;28;20411;-90
2021/11/10 00:35:53;;;;;;;7.13;1.80;;;5.20;85.60;;;;;;5034439;28;20423;-92
2021/11/10 00:38:18;;;;;;;8.50;2.15;;;5.20;85.90;;;;;;5034268;28;20425;-91
2021/11/10 00:40:45;;;;;;;4.70;1.95;;;5.10;85.90;;;;;;5033847;28;21296;-92
2021/11/10 00:43:11;;;;;;;5.97;2.00;;;5.10;86.00;;;;;;5034099;28;20466;-92
2021/11/10 00:45:37;;;;;;;5.33;2.30;;;5.10;85.90;;;;;;5016996;28;20449;-91
2021/11/10 00:48:04;;;;;;;4.90;2.03;;;5.00;86.20;;;;;;5034129;28;20375;-92
2021/11/10 00:50:30;;;;;;;8.82;2.30;;;4.90;86.40;;;;;;5016885;28;20387;-92
2021/11/10 00:52:56;;;;;;;6.73;2.33;;;4.90;86.60;;;;;;5034313;28;20379;-91
2021/11/10 00:55:21;;;;;;;4.50;1.80;;;4.90;86.70;;;;;;5033909;28;20456;-90
2021/11/10 00:57:47;;;;;;;9.23;1.97;;;4.90;86.80;;;;;;5034081;28;20418;-91
2021/11/10 01:00:13;;;;;;;6.33;2.10;;;4.90;86.80;;;;;;5033903;28;20408;-90
2021/11/10 01:02:39;;;;;;;5.15;2.13;;;4.70;86.90;;;;;;5034041;28;20512;-92
2021/11/10 01:05:06;;;;;;;5.05;1.90;;;4.60;87.10;;;;;;5033715;28;20411;-91
2021/11/10 01:07:31;;;;;;;7.72;2.30;;;4.50;87.20;;;;;;5016380;28;20392;-91
2021/11/10 01:10:02;;;;;;;3.57;2.03;;;4.60;87.60;;;;;;5016108;28;20383;-90
2021/11/10 01:12:28;;;;;;;3.97;1.70;;;4.70;87.10;;;;;;5034027;28;20386;-92
2021/11/10 01:14:54;;;;;;;6.78;2.03;;;4.60;87.20;;;;;;5016043;28;20418;-92
2021/11/10 01:17:20;;;;;;;3.92;2.00;;;4.70;87.10;;;;;;5033918;28;20387;-92
2021/11/10 01:19:45;;;;;;;4.07;1.95;;;4.60;87.20;;;;;;5033686;28;20375;-91
2021/11/10 01:22:11;;;;;;;3.00;1.85;;;4.50;87.30;;;;;;5033840;28;20379;-91
2021/11/10 01:24:37;;;;;;;6.35;1.90;;;4.50;87.50;;;;;;5015684;28;20388;-89
2021/11/10 01:27:03;;;;;;;4.75;2.22;;;4.50;87.40;;;;;;5033414;28;20836;-91
2021/11/10 01:29:28;;;;;;;4.90;2.10;;;4.50;87.30;;;;;;5015831;28;20792;-92
2021/11/10 01:31:54;;;;;;;4.57;2.33;;;4.50;87.40;;;;;;5033415;28;20383;-91
2021/11/10 01:34:19;;;;;;;4.25;2.00;;;4.50;87.20;;;;;;5033585;28;20906;-90
2021/11/10 01:36:45;;;;;;;3.15;2.00;;;4.50;87.40;;;;;;5033256;28;20391;-90
2021/11/10 01:39:11;;;;;;;5.20;2.28;;;4.50;87.50;;;;;;5033696;28;20466;-92
2021/11/10 01:41:47;;;;;;;5.83;2.13;;;4.40;87.50;;;;;;5015464;28;20872;-91
2021/11/10 01:44:21;;;;;;;3.97;1.88;;;4.40;87.60;;;;;;5033563;28;20470;-91
2021/11/10 01:46:46;;;;;;;5.78;2.08;;;4.40;87.50;;;;;;5032969;28;20391;-89
2021/11/10 01:49:12;;;;;;;7.47;2.25;;;4.40;87.60;;;;;;5033431;28;20384;-91
2021/11/10 01:51:43;;;;;;;6.32;1.90;;;4.40;87.50;;;;;;5032724;28;20521;-92
2021/11/10 01:54:12;;;;;;;6.30;2.42;;;4.40;87.80;;;;;;5032577;28;20406;-93
2021/11/10 01:56:39;;;;;;;7.85;2.50;;;4.30;87.80;;;;;;5033230;28;20737;-91
2021/11/10 01:59:04;;;;;;;4.07;1.95;;;4.30;87.60;;;;;;5015273;28;20390;-93
2021/11/10 02:01:30;;;;;;;3.85;2.15;;;4.20;87.70;;;;;;5015370;28;20388;-91
2021/11/10 02:03:56;;;;;;;5.90;2.25;;;4.10;87.80;;;;;;5015326;28;20391;-92
2021/11/10 02:06:22;;;;;;;4.97;2.15;;;4.20;87.80;;;;;;5032426;28;20383;-91
2021/11/10 02:08:47;;;;;;;3.60;1.80;;;4.20;87.90;;;;;;5016078;28;20391;-91
2021/11/10 02:11:13;;;;;;;5.33;2.03;;;4.10;87.90;;;;;;5033582;28;20759;-92
2021/11/10 02:13:40;;;;;;;6.53;2.03;;;4.20;87.80;;;;;;5015712;28;20411;-90
2021/11/10 02:16:06;;;;;;;4.28;2.28;;;4.20;87.90;;;;;;5016132;28;20898;-91
2021/11/10 02:18:32;;;;;;;11.13;3.10;;;4.10;87.80;;;;;;5016115;28;20402;-92
2021/11/10 02:20:58;;;;;;;7.63;2.30;;;4.00;87.90;;;;;;5015739;28;20399;-91
2021/11/10 02:23:24;;;;;;;3.95;2.30;;;4.00;88.00;;;;;;5015737;28;20387;-92
2021/11/10 02:25:56;;;;;;;6.30;2.30;;;4.00;88.00;;;;;;5015868;28;20464;-92
2021/11/10 02:28:21;;;;;;;5.97;2.30;;;4.00;88.00;;;;;;5033013;28;20418;-92
2021/11/10 02:30:47;;;;;;;2.87;1.90;;;4.00;88.00;;;;;;5032419;28;20371;-91
2021/11/10 02:33:14;;;;;;;5.40;2.47;;;4.00;88.20;;;;;;5032517;28;20377;-93
2021/11/10 02:35:40;;;;;;;3.93;2.00;;;3.90;88.30;;;;;;5032357;28;20445;-91
2021/11/10 02:38:07;;;;;;;5.57;2.23;;;3.80;88.40;;;;;;5032902;28;20414;-92
2021/11/10 02:40:32;;;;;;;7.43;2.22;;;3.80;88.60;;;;;;5032287;28;20393;-92
2021/11/10 02:42:59;;;;;;;6.30;2.53;;;3.90;88.40;;;;;;5014803;28;20470;-90
2021/11/10 02:45:25;;;;;;;4.00;2.03;;;3.80;88.10;;;;;;5014562;28;20856;-92
2021/11/10 02:47:51;;;;;;;4.50;2.00;;;3.70;88.30;;;;;;5032765;28;20379;-93
2021/11/10 02:50:16;;;;;;;4.75;2.30;;;3.70;88.40;;;;;;5032073;28;20474;-91
2021/11/10 02:52:42;;;;;;;5.20;2.20;;;3.70;88.50;;;;;;5032120;28;20379;-93
2021/11/10 02:55:08;;;;;;;9.37;2.40;;;3.70;88.40;;;;;;5032211;28;20431;-91
2021/11/10 02:57:34;;;;;;;5.05;2.20;;;3.70;88.50;;;;;;5031697;28;20387;-94
2021/11/10 03:00:00;;;;;;;5.70;2.27;;;3.60;88.40;;;;;;5014420;28;20860;-93
2021/11/10 03:02:29;;;;;;;4.43;2.10;;;3.60;89.00;;;;;;5014312;28;20452;-90
2021/11/10 03:04:55;;;;;;;6.38;2.40;;;3.60;88.90;;;;;;5031795;28;20478;-91
2021/11/10 03:07:21;;;;;;;6.32;2.25;;;3.70;88.70;;;;;;5031782;28;20375;-92
2021/11/10 03:09:47;;;;;;;10.23;2.80;;;3.90;89.10;;;;;;5014337;28;20396;-94
2021/11/10 03:12:14;;;;;;;6.00;2.63;;;4.50;87.80;;;;;;5031833;28;21397;-86
2021/11/10 03:14:42;;;;;;;5.63;2.40;;;4.60;87.10;;;;;;5031381;28;20422;-86
2021/11/10 03:17:11;;;;;;;4.28;2.45;;;4.90;85.90;;;;;;5031162;28;20390;-87
2021/11/10 03:19:38;;;;;;;7.88;2.72;;;5.00;85.70;;;;;;5013934;28;20402;-88
2021/11/10 03:22:05;;;;;;;6.77;2.53;;;4.90;85.70;;;;;;5031618;28;20383;-88
2021/11/10 03:24:32;;;;;;;5.65;2.60;;;4.90;85.70;;;;;;5013591;28;20470;-88
2021/11/10 03:26:57;;;;;;;6.70;2.45;;;4.90;85.40;;;;;;5031473;28;20392;-87
2021/11/10 03:29:23;;;;;;;5.25;2.35;;;5.00;85.40;;;;;;5030989;28;20395;-88
2021/11/10 03:31:49;;;;;;;7.22;2.63;;;5.20;84.50;;;;;;5031486;28;20386;-87
2021/11/10 03:34:15;;;;;;;4.85;2.33;;;5.40;83.60;;;;;;5031240;28;20403;-86
2021/11/10 03:36:42;;;;;;;5.35;3.00;;;5.30;83.80;;;;;;5014319;28;20465;-86
2021/11/10 03:39:11;;;;;;;8.70;2.50;;;5.10;84.60;;;;;;5031237;28;20394;-88
2021/11/10 03:41:37;;;;;;;7.20;3.38;;;5.10;84.50;;;;;;5031629;28;20386;-89
2021/11/10 03:44:03;;;;;;;6.37;2.73;;;5.10;84.30;;;;;;5031164;28;20436;-88
2021/11/10 03:46:28;;;;;;;5.90;2.33;;;5.20;84.00;;;;;;5013775;28;20379;-88
2021/11/10 03:48:54;;;;;;;4.35;2.35;;;5.30;83.60;;;;;;5031280;28;20371;-87
2021/11/10 03:51:20;;;;;;;6.70;2.33;;;5.20;83.80;;;;;;5030962;28;20398;-87
2021/11/10 03:53:47;;;;;;;5.78;2.45;;;5.00;84.50;;;;;;5031097;28;20382;-88
2021/11/10 03:56:13;;;;;;;7.53;2.70;;;5.00;84.40;;;;;;5030904;28;20395;-87
2021/11/10 03:58:39;;;;;;;5.32;2.25;;;4.90;84.70;;;;;;5031309;28;20404;-86
2021/11/10 04:01:05;;;;;;;6.65;2.55;;;5.10;84.40;;;;;;5030987;28;20379;-86
2021/11/10 04:03:32;;;;;;;8.23;2.60;;;5.00;84.60;;;;;;5013639;28;20395;-87
2021/11/10 04:05:57;;;;;;;8.00;2.95;;;4.90;84.70;;;;;;5029772;28;20393;-87
2021/11/10 04:08:23;;;;;;;4.53;2.30;;;5.00;84.70;;;;;;5031288;28;20379;-88
2021/11/10 04:10:49;;;;;;;5.13;2.72;;;5.00;84.30;;;;;;5030838;28;20387;-87
2021/11/10 04:13:15;;;;;;;5.95;2.47;;;5.00;84.30;;;;;;5031105;28;20383;-87
2021/11/10 04:15:41;;;;;;;4.03;2.40;;;5.00;84.40;;;;;;5030720;28;20468;-88
2021/11/10 04:18:06;;;;;;;4.22;2.10;;;4.90;84.80;;;;;;5013231;28;20457;-87
2021/11/10 04:20:32;;;;;;;5.28;2.22;;;5.00;84.50;;;;;;5013308;28;20387;-87
2021/11/10 04:22:59;;;;;;;6.03;2.38;;;5.00;84.00;;;;;;5013118;28;20442;-86
2021/11/10 04:25:24;;;;;;;4.95;2.40;;;4.90;84.50;;;;;;5031123;28;20706;-87
2021/11/10 04:27:50;;;;;;;4.50;2.20;;;4.90;84.60;;;;;;5030470;28;20452;-87
2021/11/10 04:30:16;;;;;;;5.50;2.45;;;4.80;84.70;;;;;;5032409;28;20380;-87
2021/11/10 04:32:42;;;;;;;8.07;2.63;;;4.50;85.70;;;;;;5034199;28;20440;-87
2021/11/10 04:35:09;;;;;;;5.23;2.27;;;4.40;86.20;;;;;;5016632;28;20794;-87
2021/11/10 04:37:36;;;;;;;8.95;2.70;;;4.40;86.50;;;;;;5034131;28;20726;-88
2021/11/10 04:40:03;;;;;;;6.18;2.33;;;4.30;86.80;;;;;;5016794;28;20549;-87
2021/11/10 04:42:28;;;;;;;6.55;2.70;;;4.30;86.90;;;;;;5034060;28;20379;-88
2021/11/10 04:45:01;;;;;;;4.10;1.90;;;4.30;87.00;;;;;;5034318;28;20859;-87
2021/11/10 04:47:26;;;;;;;6.68;2.97;;;4.20;86.90;;;;;;5032557;28;20717;-88
2021/11/10 04:49:52;;;;;;;4.65;2.45;;;4.20;87.10;;;;;;5033998;28;20378;-89
2021/11/10 04:52:17;;;;;;;4.07;2.42;;;4.20;87.30;;;;;;5016674;28;20383;-87
2021/11/10 04:54:43;;;;;;;8.95;2.65;;;4.10;87.50;;;;;;5033884;28;20414;-88
2021/11/10 04:57:09;;;;;;;6.85;2.45;;;4.40;87.10;;;;;;5016488;28;20387;-87
2021/11/10 04:59:35;;;;;;;6.43;2.17;;;4.30;86.60;;;;;;5016064;28;20433;-87
2021/11/10 05:04:36;;;;;;;8.25;2.70;;;4.10;87.00;;;;;;5033720;28;20764;-87
2021/11/10 05:07:03;;;;;;;8.45;2.38;;;4.10;86.90;;;;;;5033723;28;20894;-87
2021/11/10 05:09:29;;;;;;;9.43;2.95;;;4.10;87.10;;;;;;5019972;28;20383;-87
2021/11/10 05:11:55;;;;;;;3.47;2.27;;;4.10;87.30;;;;;;5033938;28;20409;-87
2021/11/10 05:14:20;;;;;;;7.83;2.60;;;4.00;87.40;;;;;;5033676;28;20403;-87
2021/11/10 05:16:46;;;;;;;3.53;2.13;;;3.90;87.70;;;;;;5033611;28;20383;-86
2021/11/10 05:19:12;;;;;;;3.40;2.10;;;3.90;87.90;;;;;;5016025;28;20387;-87
2021/11/10 05:21:37;;;;;;;7.32;2.40;;;3.80;87.50;;;;;;5033305;28;20379;-87
2021/11/10 05:24:04;;;;;;;5.25;2.22;;;3.80;87.80;;;;;;5033649;28;20411;-88
2021/11/10 05:26:30;;;;;;;7.07;2.20;;;3.80;88.10;;;;;;5015540;28;20440;-87
2021/11/10 05:28:56;;;;;;;6.10;2.77;;;3.90;88.20;;;;;;5033394;28;20395;-87
2021/11/10 05:31:22;;;;;;;6.67;2.97;;;3.80;88.30;;;;;;5033137;28;20383;-87
2021/11/10 05:33:48;;;;;;;10.27;3.00;;;3.90;88.20;;;;;;5015708;28;20387;-86
2021/11/10 05:36:13;;;;;;;8.88;3.00;;;3.90;87.90;;;;;;5033204;28;20462;-86
2021/11/10 05:38:39;;;;;;;8.32;3.10;;;3.90;87.80;;;;;;5033232;28;20795;-86
2021/11/10 05:41:05;;;;;;;6.33;2.77;;;3.90;88.00;;;;;;5031848;28;20471;-86
2021/11/10 05:43:30;;;;;;;6.33;2.83;;;3.90;88.00;;;;;;5032896;28;20784;-87
2021/11/10 05:45:56;;;;;;;4.57;2.50;;;3.90;88.10;;;;;;5033316;28;20448;-87
2021/11/10 05:48:22;;;;;;;5.77;2.53;;;3.90;88.10;;;;;;5032890;28;20391;-87
2021/11/10 05:50:48;;;;;;;7.68;3.40;;;3.80;88.00;;;;;;5033011;28;20441;-86
2021/11/10 05:53:14;;;;;;;7.20;2.87;;;3.60;88.50;;;;;;5032863;28;20409;-88
2021/11/10 05:55:41;;;;;;;4.22;2.55;;;3.80;88.60;;;;;;5015425;28;20414;-88
2021/11/10 05:58:07;;;;;;;7.40;2.90;;;3.80;88.30;;;;;;5033026;28;20538;-88
2021/11/10 06:00:33;;;;;;;7.47;3.30;;;3.70;88.40;;;;;;5015358;28;20393;-87
2021/11/10 06:02:59;;;;;;;6.57;3.23;;;3.90;87.70;;;;;;5010265;28;20401;-86
2021/11/10 06:05:25;;;;;;;7.87;3.20;;;3.90;88.30;;;;;;5013077;28;20443;-87
2021/11/10 06:07:50;;;;;;;11.70;3.92;;;3.90;87.90;;;;;;4995488;28;20377;-87
2021/11/10 06:10:21;;;;;;;8.30;3.33;;;3.90;88.10;;;;;;5005181;28;20735;-86
2021/11/10 06:12:47;;;;;;;11.18;3.17;;;3.80;88.20;;;;;;5005117;28;20424;-88
2021/11/10 06:15:13;;;;;;;6.03;2.60;;;3.80;88.00;;;;;;5012910;28;20476;-86
2021/11/10 06:17:39;;;;;;;7.60;3.10;;;3.70;88.10;;;;;;5012720;28;20388;-86
2021/11/10 06:20:07;;;;;;;11.43;3.03;;;3.70;88.50;;;;;;5014040;28;20373;-86
2021/11/10 06:22:33;;;;;;;8.40;3.15;;;3.70;88.50;;;;;;5004557;28;20403;-86
2021/11/10 06:24:59;;;;;;;5.65;3.00;;;3.60;88.40;;;;;;5014953;28;20702;-86
2021/11/10 06:27:25;;;;;;;8.88;3.22;;;3.50;88.60;;;;;;5012774;28;20381;-86
2021/11/10 06:29:50;;;;;;;6.23;2.87;;;3.60;88.80;;;;;;5007244;28;20487;-87
2021/11/10 06:32:16;;;;;;;8.83;3.00;;;3.60;88.80;;;;;;5027112;28;20390;-87
2021/11/10 06:34:42;;;;;;;12.93;3.53;;;3.60;88.80;;;;;;5014396;28;20407;-87
2021/11/10 06:37:07;;;;;;;7.73;3.23;;;3.60;88.60;;;;;;5010502;28;20397;-87
2021/11/10 06:39:33;;;;;;;6.93;3.43;;;3.60;88.80;;;;;;5002443;28;20748;-87
2021/11/10 06:41:58;;;;;;;9.57;3.73;;;3.60;88.70;;;;;;5021587;28;20385;-82
2021/11/10 06:44:24;;;;;;;8.67;4.00;;;3.40;88.30;;;;;;5021378;28;20456;-88
2021/11/10 06:46:49;;;;;;;9.07;4.07;;;3.40;88.90;;;;;;5022842;28;20780;-87
2021/11/10 06:49:15;;;;;;;8.17;3.53;;;3.40;88.90;;;;;;5021409;28;20376;-86
2021/11/10 06:51:41;;;;;;;8.70;3.37;;;3.50;88.80;;;;;;5005101;28;20421;-88
2021/11/10 06:54:07;;;;;;;7.20;3.10;;;3.40;89.00;;;;;;5013658;28;20410;-88
2021/11/10 06:56:33;;;;;;;8.38;3.25;;;3.40;89.00;;;;;;5014089;28;20391;-86
2021/11/10 06:58:59;;;;;;;5.57;3.20;;;3.50;88.90;;;;;;5014233;28;20395;-87
2021/11/10 07:01:26;;;;;;;7.30;3.10;;;3.50;88.80;;;;;;5024489;28;20392;-87
2021/11/10 07:03:52;;;;;;;7.50;3.15;;;3.40;89.00;;;;;;5011800;28;20834;-87
2021/11/10 07:06:17;;;;;;;4.72;2.85;;;3.30;89.40;;;;;;5011864;28;20388;-87
2021/11/10 07:08:43;;;;;;;5.97;3.03;;;3.30;89.30;;;;;;5012046;28;20415;-87
2021/11/10 07:11:09;;;;;;;6.33;3.40;;;3.30;89.30;;;;;;5011850;28;20449;-87
2021/11/10 07:13:35;;;;;;;9.32;3.22;;;3.30;89.20;;;;;;4994238;28;20416;-88
2021/11/10 07:16:01;;;;;;;10.57;3.50;;;3.40;89.30;;;;;;5011939;28;20447;-88
2021/11/10 07:18:27;;;;;;;8.93;3.17;;;3.40;89.30;;;;;;5011510;28;20475;-87
2021/11/10 07:20:53;;;;;;;8.38;3.17;;;3.30;89.50;;;;;;5011990;28;20464;-87
2021/11/10 07:23:18;;;;;;;8.13;3.28;;;3.30;89.40;;;;;;4994064;28;20388;-87
2021/11/10 07:25:44;;;;;;;6.20;3.25;;;3.20;89.40;;;;;;5011760;28;20381;-86
2021/11/10 07:28:09;;;;;;;8.23;3.50;;;3.20;89.40;;;;;;5011354;28;20403;-87
2021/11/10 07:30:37;;;;;;;11.50;3.67;;;3.30;89.60;;;;;;5011918;28;20383;-87
2021/11/10 07:33:02;;;;;;;7.30;3.28;;;3.40;89.40;;;;;;5011334;28;20380;-87
2021/11/10 07:35:28;;;;;;;7.63;4.18;;;3.30;89.40;;;;;;5011689;28;20401;-86
2021/11/10 07:37:54;;;;;;;8.43;3.65;;;3.30;89.40;;;;;;4995162;28;20395;-87
2021/11/10 07:40:19;;;;;;;8.95;3.50;;;3.20;89.50;;;;;;5011585;28;20377;-87
2021/11/10 07:42:45;;;;;;;8.43;4.25;;;3.30;89.80;;;;;;4993974;28;20733;-87
2021/11/10 07:45:15;;;;;;;10.00;4.25;;;3.30;89.80;;;;;;4993692;28;20734;-86
2021/11/10 07:47:41;;;;;;;7.43;3.42;;;3.40;89.70;;;;;;5011592;28;20384;-86
2021/11/10 07:50:21;;;;;;;7.25;3.80;;;3.30;89.50;;;;;;5011249;28;20424;-87
2021/11/10 07:52:47;;;;;;;7.22;3.55;;;3.40;89.70;;;;;;4993802;28;20385;-86
2021/11/10 07:55:13;;;;;;;8.70;3.85;;;3.40;89.60;;;;;;5011167;28;20440;-87
2021/11/10 07:57:39;;;;;;;13.80;4.30;;;3.20;89.90;;;;;;4993920;28;20427;-86
2021/11/10 08:00:09;;;;;;;9.97;3.63;;;3.10;90.70;;;;;;5011208;28;20406;-87
2021/11/10 08:02:35;;;;;;;9.10;4.30;;;3.30;90.90;;;;;;5011424;28;20392;-86
2021/11/10 08:05:01;;;;;;;9.10;4.57;;;3.20;90.50;;;;;;4995028;28;20479;-87
2021/11/10 08:07:26;;;;;;;8.98;4.43;;;3.30;90.50;;;;;;5015348;28;20404;-86
2021/11/10 08:09:52;;;;;;;15.15;4.40;;;3.40;90.80;;;;;;5014369;28;20434;-83
2021/11/10 08:12:18;;;;;;;12.40;4.30;;;3.40;90.80;;;;;;4996674;28;20388;-84
2021/11/10 08:14:43;;;;;;;9.90;4.07;;;3.50;90.30;;;;;;5014434;28;20405;-82
2021/11/10 08:17:09;;;;;;;26.73;12.13;;;3.40;90.40;;;;;;4996657;28;20393;-83
2021/11/10 08:19:34;;;;;;;13.00;4.70;;;3.50;90.40;;;;;;5014654;28;20888;-83
2021/11/10 08:22:00;;;;;;;8.03;4.13;;;3.50;90.70;;;;;;4996588;28;20474;-84
2021/11/10 08:24:29;;;;;;;12.07;4.05;;;3.50;90.40;;;;;;5014225;28;20389;-83
2021/11/10 08:26:55;;;;;;;12.40;4.53;;;3.60;90.30;;;;;;5014123;28;20742;-83
2021/11/10 08:29:22;;;;;;;11.25;4.47;;;3.70;90.10;;;;;;5014208;28;20393;-83
2021/11/10 08:31:49;;;;;;;11.68;4.55;;;3.80;90.60;;;;;;5014053;28;20385;-82
2021/11/10 08:34:15;;;;;;;11.10;5.10;;;3.80;90.00;;;;;;4998992;28;20750;-84
2021/11/10 08:36:43;;;;;;;7.90;4.18;;;3.90;90.60;;;;;;5019120;28;20388;-83
2021/11/10 08:39:09;;;;;;;12.85;4.50;;;4.10;90.90;;;;;;5023278;28;20730;-83
2021/11/10 08:41:35;;;;;;;11.98;5.03;;;4.30;90.40;;;;;;5022706;28;20379;-84
2021/11/10 08:44:00;;;;;;;11.45;4.70;;;4.50;90.10;;;;;;5024810;28;20382;-84
2021/11/10 08:46:27;;;;;;;11.50;4.63;;;4.60;89.50;;;;;;5033659;28;20487;-82
2021/11/10 08:48:55;;;;;;;10.23;4.18;;;4.90;89.00;;;;;;5032092;28;20425;-82
2021/11/10 08:51:20;;;;;;;8.65;4.03;;;5.40;87.30;;;;;;5015943;28;20387;-82
2021/11/10 08:53:46;;;;;;;13.82;4.30;;;5.40;86.80;;;;;;5033560;28;20467;-80
2021/11/10 08:56:12;;;;;;;13.60;4.03;;;5.30;87.40;;;;;;5032377;28;20772;-81
2021/11/10 08:58:38;;;;;;;8.40;3.90;;;5.30;87.50;;;;;;5020044;28;20381;-81
2021/11/10 09:01:03;;;;;;;13.10;4.50;;;5.40;87.40;;;;;;4995959;28;20385;-82
2021/11/10 09:03:29;;;;;;;8.77;4.47;;;5.40;87.60;;;;;;5013371;28;20381;-81
2021/11/10 09:05:56;;;;;;;10.55;5.10;;;5.40;87.50;;;;;;5013586;28;20377;-82
2021/11/10 09:08:30;;;;;;;9.98;4.13;;;5.60;87.00;;;;;;4995687;28;20388;-82
2021/11/10 09:10:56;;;;;;;9.35;3.97;;;6.10;84.10;;;;;;4995562;28;20428;-82
2021/11/10 09:13:22;;;;;;;12.75;4.47;;;6.20;83.90;;;;;;5012068;28;20392;-83
2021/11/10 09:15:51;;;;;;;13.40;4.30;;;6.30;83.90;;;;;;5012624;28;20778;-82
2021/11/10 09:18:17;;;;;;;8.98;4.63;;;6.20;84.30;;;;;;5015878;28;20387;-83
2021/11/10 09:20:43;;;;;;;13.50;4.65;;;6.40;84.80;;;;;;5013006;28;20381;-83
2021/11/10 09:23:11;;;;;;;8.43;4.03;;;6.40;84.50;;;;;;5013188;28;20712;-82
2021/11/10 09:25:38;;;;;;;10.38;4.65;;;6.70;82.60;;;;;;5013040;28;20381;-82
2021/11/10 09:28:06;;;;;;;8.55;3.60;;;6.80;82.40;;;;;;4995252;28;20400;-82
2021/11/10 09:30:33;;;;;;;10.13;4.20;;;6.90;82.10;;;;;;5013065;28;20384;-82
2021/11/10 09:32:59;;;;;;;11.07;4.18;;;7.10;80.70;;;;;;5012933;28;20384;-89
2021/11/10 09:35:26;;;;;;;11.10;3.65;;;7.50;79.50;;;;;;5012804;28;20888;-81
2021/11/10 09:37:53;;;;;;;10.85;3.97;;;7.60;79.40;;;;;;5012606;28;20389;-81
2021/11/10 09:40:24;;;;;;;12.27;4.25;;;7.70;78.60;;;;;;5011625;28;20443;-81
2021/11/10 09:42:50;;;;;;;12.50;3.50;;;7.90;76.60;;;;;;5012330;28;20427;-82
2021/11/10 09:45:20;;;;;;;8.98;4.25;;;7.90;76.90;;;;;;5012757;28;20764;-81
2021/11/10 09:47:47;;;;;;;11.32;4.85;;;7.90;78.10;;;;;;5012669;28;20431;-81
2021/11/10 09:50:16;;;;;;;9.27;3.97;;;8.00;76.10;;;;;;4995242;28;20389;-83
2021/11/10 09:52:42;;;;;;;11.07;4.18;;;8.20;74.60;;;;;;5011193;28;20733;-81
2021/11/10 09:55:11;;;;;;;9.03;3.63;;;8.20;76.10;;;;;;4995106;28;20501;-81
2021/11/10 09:57:37;;;;;;;10.90;4.35;;;8.40;77.00;;;;;;5012351;28;20775;-82
2021/11/10 10:00:06;;;;;;;10.20;4.50;;;8.30;75.40;;;;;;5012296;28;20391;-82
2021/11/10 10:02:32;;;;;;;8.90;4.35;;;8.40;75.50;;;;;;4995095;28;20484;-81
2021/11/10 10:04:58;;;;;;;16.30;4.50;;;8.60;75.30;;;;;;5012295;28;20385;-81
2021/11/10 10:07:25;;;;;;;11.27;4.90;;;8.80;73.80;;;;;;4994795;28;20397;-81
2021/11/10 10:09:51;;;;;;;13.38;4.60;;;8.80;73.20;;;;;;5012388;28;20417;-81
2021/11/10 10:12:19;;;;;;;12.48;4.70;;;8.80;73.30;;;;;;5012124;28;20373;-82
2021/11/10 10:14:46;;;;;;;11.80;4.70;;;9.00;72.90;;;;;;5012082;28;20507;-81
2021/11/10 10:17:40;;;;;;;13.70;4.30;;;8.90;74.20;;;;;;5012283;28;20783;-81
2021/11/10 10:20:25;;;;;;;9.90;3.90;;;8.80;72.10;;;;;;5011946;28;20388;-81
2021/11/10 10:22:51;;;;;;;10.20;4.35;;;9.00;73.70;;;;;;4994394;28;20496;-81
2021/11/10 10:25:17;;;;;;;13.93;4.80;;;8.90;73.10;;;;;;4999869;28;20733;-83
2021/11/10 10:28:14;;;;;;;12.52;4.03;;;9.00;73.20;;;;;;4993726;28;20421;-83
2021/11/10 10:30:44;;;;;;;15.17;4.47;;;9.00;71.60;;;;;;4978659;28;20396;-82
2021/11/10 10:33:18;;;;;;;12.65;3.78;;;9.00;71.90;;;;;;4994180;28;20397;-82
2021/11/10 10:35:51;;;;;;;10.27;3.97;;;9.10;71.50;;;;;;5011747;28;20408;-84
2021/11/10 10:38:23;;;;;;;9.68;3.33;;;9.20;72.10;;;;;;5010899;28;20832;-82
2021/11/10 10:40:52;;;;;;;9.17;3.73;;;9.30;72.90;;;;;;5023506;28;20393;-82
2021/11/10 10:43:23;;;;;;;9.35;3.97;;;9.30;72.40;;;;;;5013746;28;20383;-82
2021/11/10 10:45:51;;;;;;;9.00;3.83;;;9.20;71.20;;;;;;5031230;28;20463;-82
2021/11/10 10:48:19;;;;;;;12.38;3.85;;;9.00;71.90;;;;;;5031880;28;20379;-82
2021/11/10 10:50:59;;;;;;;10.68;3.35;;;9.00;72.10;;;;;;5031150;28;20706;-84
2021/11/10 10:53:39;;;;;;;8.82;3.60;;;9.10;73.40;;;;;;5031495;28;21344;-82
2021/11/10 10:56:16;;;;;;;8.52;3.25;;;9.10;73.90;;;;;;5013236;28;20760;-82
2021/11/10 10:58:43;;;;;;;11.55;3.67;;;9.20;72.80;;;;;;5031187;28;20419;-82
2021/11/10 11:01:42;;;;;;;11.57;3.95;;;9.30;72.40;;;;;;5002662;28;20385;-83
2021/11/10 11:04:07;;;;;;;7.38;3.30;;;9.10;72.20;;;;;;5009429;28;20393;-84
2021/11/10 11:06:42;;;;;;;5.70;3.00;;;9.10;72.30;;;;;;4993718;28;20392;-85
2021/11/10 11:09:22;;;;;;;7.85;3.30;;;9.20;72.00;;;;;;5011285;28;20495;-83
2021/11/10 11:14:41;;;;;;;9.07;3.63;;;9.20;73.40;;;;;;5011384;28;20408;-82
2021/11/10 11:17:23;;;;;;;9.18;3.33;;;9.20;74.40;;;;;;5011249;28;20391;-84
2021/11/10 11:19:51;;;;;;;5.97;3.30;;;9.30;72.50;;;;;;5011116;28;20390;-83
2021/11/10 11:22:16;;;;;;;7.65;3.30;;;9.30;73.00;;;;;;4993396;28;20390;-84
2021/11/10 11:24:44;;;;;;;7.17;3.50;;;9.30;74.00;;;;;;5011210;28;20400;-84
2021/11/10 11:27:14;;;;;;;13.48;3.90;;;9.30;73.50;;;;;;4993339;28;20389;-84
2021/11/10 11:29:42;;;;;;;11.13;3.45;;;9.30;73.50;;;;;;5011010;28;20401;-83
2021/11/10 11:32:29;;;;;;;7.97;3.75;;;9.30;73.80;;;;;;5011080;28;20380;-84
2021/11/10 11:35:08;;;;;;;8.20;3.57;;;9.30;72.10;;;;;;5003848;28;20463;-83
2021/11/10 11:37:34;;;;;;;8.13;3.58;;;9.40;72.90;;;;;;5030786;28;20384;-84
2021/11/10 11:40:09;;;;;;;8.18;3.55;;;9.30;72.40;;;;;;5033627;28;20379;-83
2021/11/10 11:42:34;;;;;;;8.75;3.42;;;9.30;72.00;;;;;;5034910;28;20386;-84
2021/11/10 11:45:02;;;;;;;16.40;3.67;;;9.40;73.70;;;;;;5034678;28;20465;-85
2021/11/10 11:47:29;;;;;;;9.75;3.88;;;9.40;72.40;;;;;;5017038;28;20383;-83
2021/11/10 11:49:58;;;;;;;8.77;3.63;;;9.50;72.40;;;;;;5034496;28;20375;-83
2021/11/10 11:52:27;;;;;;;9.70;3.58;;;9.50;71.90;;;;;;5034701;28;20397;-83
2021/11/10 11:54:59;;;;;;;7.50;3.58;;;9.40;71.40;;;;;;5034363;28;20468;-84
2021/11/10 11:57:26;;;;;;;9.30;4.13;;;9.60;72.40;;;;;;5034790;28;20379;-84
2021/11/10 11:59:55;;;;;;;10.53;3.63;;;9.60;72.40;;;;;;5034393;28;20390;-85
2021/11/10 12:02:26;;;;;;;9.35;3.72;;;9.50;71.90;;;;;;5016633;28;20736;-84
2021/11/10 12:04:52;;;;;;;7.32;3.85;;;9.60;72.30;;;;;;5016560;28;20458;-84
2021/11/10 12:07:42;;;;;;;11.57;3.75;;;9.60;72.70;;;;;;5034236;28;20418;-83
2021/11/10 12:10:22;;;;;;;11.35;4.32;;;9.60;72.90;;;;;;5034263;28;20733;-84
2021/11/10 12:13:12;;;;;;;9.52;4.22;;;9.80;72.50;;;;;;5016355;28;20709;-84
2021/11/10 12:16:13;;;;;;;11.88;3.42;;;9.80;71.30;;;;;;5016159;28;20407;-84
2021/11/10 12:18:44;;;;;;;10.90;4.43;;;9.80;71.50;;;;;;5034296;28;20411;-85
2021/11/10 12:21:11;;;;;;;12.05;3.95;;;9.80;71.50;;;;;;5022375;28;20385;-85
2021/11/10 12:24:03;;;;;;;12.13;3.95;;;9.90;72.40;;;;;;5014447;28;20895;-84
2021/11/10 12:26:29;;;;;;;9.52;3.95;;;9.80;70.60;;;;;;5014215;28;20377;-84
2021/11/10 12:28:57;;;;;;;11.90;3.90;;;9.80;71.70;;;;;;5016742;28;20391;-84
2021/11/10 12:31:38;;;;;;;10.13;4.00;;;9.80;71.60;;;;;;5021348;28;20833;-85
2021/11/10 12:34:26;;;;;;;7.83;3.77;;;9.90;72.70;;;;;;4996234;28;20433;-86
2021/11/10 12:37:02;;;;;;;10.90;4.00;;;9.70;70.70;;;;;;5013865;28;20425;-85
2021/11/10 12:39:31;;;;;;;11.27;3.75;;;9.70;71.20;;;;;;5012701;28;20439;-85
2021/11/10 12:42:11;;;;;;;10.95;4.00;;;9.60;70.80;;;;;;5013760;28;20392;-85
2021/11/10 12:44:38;;;;;;;8.15;3.70;;;9.70;73.20;;;;;;5014007;28;20387;-85
2021/11/10 12:47:05;;;;;;;10.07;3.90;;;9.70;73.30;;;;;;5013722;28;20799;-85
2021/11/10 12:49:30;;;;;;;9.13;3.60;;;9.70;71.30;;;;;;5013940;28;20381;-85
2021/11/10 12:52:22;;;;;;;9.87;3.80;;;9.60;72.70;;;;;;5013105;28;20446;-84
2021/11/10 12:55:13;;;;;;;7.03;3.60;;;9.80;72.50;;;;;;5008507;28;20819;-84
2021/11/10 12:57:39;;;;;;;9.57;3.80;;;9.90;72.40;;;;;;4995892;28;20397;-84
2021/11/10 13:00:05;;;;;;;8.90;3.80;;;9.90;73.30;;;;;;4995886;28;20404;-85
2021/11/10 13:02:32;;;;;;;11.05;3.85;;;9.90;72.00;;;;;;5012196;28;20459;-84
2021/11/10 13:05:03;;;;;;;15.60;4.20;;;9.90;71.70;;;;;;5013545;28;20389;-86